WetterOnline ( https://www.wetteronline.ch )

Wetter aktuell Zingst

Aktuelles Wetter: Barth (7m)

6-stündlich | Neueste Meldungen
Ortszeit Temperatur Wetter
Di, 12.11. 13:00 6.9° C wolkenlos
Di, 12.11. 7:00 1.8° C bewölkt
Di, 12.11. 1:00 2.6° C bedeckt
Mo, 11.11. 19:00 1.9° C wolkig
Mo, 11.11. 13:00 5.0° C bedeckt
Mo, 11.11. 7:00 1.4° C bedeckt
Mo, 11.11. 1:00 -0.1° C fast wolkenlos
So, 10.11. 19:00 0.5° C wolkenlos
Ortszeit Temperatur Wetter
Di, 12.11. 16:30 5.8° C bedeckt
Di, 12.11. 16:20 5.8° C bedeckt
Di, 12.11. 16:10 5.8° C bewölkt
Di, 12.11. 16:00 5.6° C wolkig
Di, 12.11. 15:50 5.6° C wolkig
Di, 12.11. 15:40 5.4° C leicht bewölkt
Di, 12.11. 15:30 6.0° C wolkenlos
Di, 12.11. 15:00 6.6° C wolkenlos
Di, 12.11. 14:30 6.8° C wolkenlos
Di, 12.11. 14:00 6.8° C fast wolkenlos
Di, 12.11. 13:30 6.8° C wolkenlos
Ortszeit Relative Feuchte Sichtweite
Di, 12.11. 13:00 74% 25 km
Di, 12.11. 7:00 90% 8 km
Di, 12.11. 1:00 87% 13 km
Mo, 11.11. 19:00 92% 6 km
Mo, 11.11. 13:00 85% 12 km
Mo, 11.11. 7:00 97% 2.8 km
Mo, 11.11. 1:00 99% 1.1 km
So, 10.11. 19:00 96% 2.7 km
Ortszeit Relative Feuchte Sichtweite
Di, 12.11. 16:30 79% 30 km
Di, 12.11. 16:20 79% -
Di, 12.11. 16:10 79% -
Di, 12.11. 16:00 79% 27 km
Di, 12.11. 15:50 79% -
Di, 12.11. 15:40 79% -
Di, 12.11. 15:30 76% 30 km
Di, 12.11. 15:00 73% 29 km
Di, 12.11. 14:30 72% 28 km
Di, 12.11. 14:00 72% 23 km
Di, 12.11. 13:30 72% 30 km
Ortszeit Niederschlagsmenge Niederschlagsart
Di, 12.11. 13:00 0.1 l/m2 in 6 Std. Regen
Di, 12.11. 7:00 0.0 l/m2 in 12 Std. -
Di, 12.11. 1:00 0.0 l/m2 in 6 Std. -
Mo, 11.11. 19:00 0.0 l/m2 in 12 Std. -
Mo, 11.11. 13:00 0.0 l/m2 in 6 Std. -
Mo, 11.11. 7:00 0.0 l/m2 in 12 Std. -
Mo, 11.11. 1:00 0.0 l/m2 in 6 Std. -
So, 10.11. 19:00 0.0 l/m2 in 12 Std. -
Ortszeit Niederschlagsmenge Niederschlagsart
Di, 12.11. 16:30 0.0 l/m2 in 1 Std. -
Di, 12.11. 16:20 keine Meldung -
Di, 12.11. 16:10 keine Meldung -
Di, 12.11. 16:00 0.0 l/m2 in 1 Std. -
Di, 12.11. 15:50 keine Meldung -
Di, 12.11. 15:40 keine Meldung -
Di, 12.11. 15:30 0.0 l/m2 in 1 Std. -
Di, 12.11. 15:00 0.0 l/m2 in 1 Std. -
Di, 12.11. 14:30 0.0 l/m2 in 1 Std. -
Di, 12.11. 14:00 0.0 l/m2 in 1 Std. -
Di, 12.11. 13:30 0.0 l/m2 in 1 Std. -
Ortszeit Stärke Spitze Richtung
km/h Bft. km/h Grad Sektor
Di, 12.11. 13:00 18 3 36 180° S
Di, 12.11. 7:00 14 3 25 160° S
Di, 12.11. 1:00 18 3 36 150° SO
Mo, 11.11. 19:00 14 3 36 150° SO
Mo, 11.11. 13:00 22 4 40 170° S
Mo, 11.11. 7:00 15 3 24 180° S
Mo, 11.11. 1:00 9 2 17 160° S
So, 10.11. 19:00 6 1 22 170° S
Ortszeit Stärke Spitze Richtung
km/h Bft. km/h Grad Sektor
Di, 12.11. 16:30 13 3 22 160° S
Di, 12.11. 16:20 13 3 - 160° S
Di, 12.11. 16:10 13 3 - 160° S
Di, 12.11. 16:00 15 3 26 160° S
Di, 12.11. 15:50 15 3 - 160° S
Di, 12.11. 15:40 15 3 - 160° S
Di, 12.11. 15:30 17 3 26 170° S
Di, 12.11. 15:00 18 3 29 160° S
Di, 12.11. 14:30 20 4 30 170° S
Di, 12.11. 14:00 19 3 30 170° S
Di, 12.11. 13:30 19 3 28 170° S
Ortszeit Untergrenze Bedeckung Gattung
total tief tief mittel hoch
Di, 12.11. 13:00 - 0/8 0/8 - - -
Di, 12.11. 7:00 780 m 8/8 6/8 - - -
Di, 12.11. 1:00 3300 m 8/8 8/8 - - -
Mo, 11.11. 19:00 10500 m 8/8 0/8 - - -
Mo, 11.11. 13:00 270 m 8/8 8/8 - - -
Mo, 11.11. 7:00 60 m 8/8 8/8 - - -
Mo, 11.11. 1:00 <30 m 1/8 0/8 - - -
So, 10.11. 19:00 - 0/8 0/8 - - -
Ortszeit Bedeckungsgrad in Achtel und Wolkenuntergrenze
Di, 12.11. 16:30 8(810m)
Di, 12.11. 16:20 8(810m)
Di, 12.11. 16:10 7(810m)
Di, 12.11. 16:00 5(780m)
Di, 12.11. 15:50 5(780m)
Di, 12.11. 15:40 3(780m)
Di, 12.11. 15:30 keine Wolken
Di, 12.11. 15:00 keine Wolken
Di, 12.11. 14:30 keine Wolken
Di, 12.11. 14:00 1(630m)
Di, 12.11. 13:30 keine Wolken
Ortszeit Luftdruck NN (hPa) Tendenz (hPa in 3 Std.)
Di, 12.11. 13:00 1004 - 0,3
Di, 12.11. 7:00 1003 - 0,2
Di, 12.11. 1:00 1004 - 1,0
Mo, 11.11. 19:00 1007 - 0,8
Mo, 11.11. 13:00 1010 - 1,3
Mo, 11.11. 7:00 1013 - 1,1
Mo, 11.11. 1:00 1014 - 0,7
So, 10.11. 19:00 1015 + 0,8
Ortszeit Luftdruck NN (hPa) Tendenz (hPa in 3 Std.)
Di, 12.11. 16:30 1004 + 0,5
Di, 12.11. 16:20 1004 keine Meldung
Di, 12.11. 16:10 1004 keine Meldung
Di, 12.11. 16:00 1004 + 0,4
Di, 12.11. 15:50 1004 keine Meldung
Di, 12.11. 15:40 1004 keine Meldung
Di, 12.11. 15:30 1004 + 0,1
Di, 12.11. 15:00 1004 - 0,7
Di, 12.11. 14:30 1003 - 1,0
Di, 12.11. 14:00 1004 - 0,9
Di, 12.11. 13:30 1004 - 0,6
Ortszeit Schneehöhe (cm)
Di, 12.11. 13:00 0
Di, 12.11. 7:00 0
Di, 12.11. 1:00 0
Mo, 11.11. 19:00 0
Mo, 11.11. 13:00 0
Mo, 11.11. 7:00 0
Mo, 11.11. 1:00 0
So, 10.11. 19:00 0
Ortszeit Schneehöhe (cm)
Di, 12.11. 16:30 0
Di, 12.11. 16:20 0
Di, 12.11. 16:10 0
Di, 12.11. 16:00 0
Di, 12.11. 15:50 0
Di, 12.11. 15:40 0
Di, 12.11. 15:30 0
Di, 12.11. 15:00 0
Di, 12.11. 14:30 0
Di, 12.11. 14:00 0
Di, 12.11. 13:30 0
Link zu dieser Seite / Seite empfehlen

Das Wetter in ...